Time;durP1;ratioP1;P1;durP2;ratioP2;P2;SDS_P1;SDS_P2;PMS_P1;PMS_P2;Temp;Humidity;BMP_temperature;BMP_pressure;BME280_temperature;BME280_humidity;BME280_pressure;Samples;Min_cycle;Max_cycle;Signal;HPM_P1;HPM_P2
2023/04/14 00:02:01;;;;;;;;;;;;;;;18.40;65.51;100138.48;2245800;78;50519;-75
2023/04/14 00:05:03;;;;;;;;;;;;;;;18.40;65.58;100145.17;2245653;78;51413;-75
2023/04/14 00:08:04;;;;;;;;;;;;;;;18.40;65.84;100153.22;2245674;78;52569;-76
2023/04/14 00:11:06;;;;;;;;;;;;;;;18.39;65.63;100168.95;2246922;78;50754;-72
2023/04/14 00:14:08;;;;;;;;;;;;;;;18.36;65.38;100173.36;2266868;78;50724;-74
2023/04/14 00:17:09;;;;;;;;;;;;;;;18.36;65.27;100178.72;2266862;78;50739;-75
2023/04/14 00:20:11;;;;;;;;;;;;;;;18.40;65.05;100185.87;2221065;78;51619;-74
2023/04/14 00:23:12;;;;;;;;;;;;;;;18.39;65.47;100181.00;2254415;78;51430;-74
2023/04/14 00:26:14;;;;;;;;;;;;;;;18.34;65.42;100188.82;2229888;79;51465;-74
2023/04/14 00:29:15;;;;;;;;;;;;;;;18.36;65.40;100185.93;2230059;80;51483;-74
2023/04/14 00:32:17;;;;;;;;;;;;;;;18.35;65.50;100193.66;2209354;80;51765;-72
2023/04/14 00:35:19;;;;;;;;;;;;;;;18.34;65.40;100198.68;2209075;80;51714;-75
2023/04/14 00:38:20;;;;;;;;;;;;;;;18.32;65.43;100194.88;2254966;78;51460;-74
2023/04/14 00:41:23;;;;;;;;;;;;;;;18.32;65.55;100192.20;2245510;78;50081;-75
2023/04/14 00:44:25;;;;;;;;;;;;;;;18.31;65.72;100195.05;2245273;78;49690;-75
2023/04/14 00:47:26;;;;;;;;;;;;;;;18.32;65.76;100196.73;2245504;78;50630;-73
2023/04/14 00:50:28;;;;;;;;;;;;;;;18.33;65.64;100194.36;2241378;78;51537;-75
2023/04/14 00:53:30;;;;;;;;;;;;;;;18.33;65.64;100196.52;2266394;78;51454;-74
2023/04/14 00:56:32;;;;;;;;;;;;;;;18.30;65.74;100200.92;2245278;78;51244;-75
2023/04/14 00:59:33;;;;;;;;;;;;;;;18.30;65.53;100198.25;2266729;78;50632;-74
2023/04/14 01:02:35;;;;;;;;;;;;;;;18.30;65.70;100196.91;2251560;78;51573;-75
2023/04/14 01:05:37;;;;;;;;;;;;;;;18.31;65.56;100191.86;2235292;78;50749;-75
2023/04/14 01:08:38;;;;;;;;;;;;;;;18.31;65.73;100192.38;2209826;78;52518;-74
2023/04/14 01:11:47;;;;;;;;;;;;;;;18.33;65.90;100191.67;2232050;78;51506;-74
2023/04/14 01:14:55;;;;;;;;;;;;;;;18.30;66.04;100196.91;2244055;78;50480;-74
2023/04/14 01:18:01;;;;;;;;;;;;;;;18.30;65.92;100200.92;2234836;78;51566;-75
2023/04/14 01:21:05;;;;;;;;;;;;;;;18.28;66.05;100202.45;2228837;78;51238;-74
2023/04/14 01:24:27;;;;;;;;;;;;;;;18.28;65.94;100196.27;2266818;78;50785;-74
2023/04/14 01:27:33;;;;;;;;;;;;;;;18.26;66.06;100190.27;2266654;78;50809;-74
2023/04/14 01:30:37;;;;;;;;;;;;;;;18.27;66.16;100190.09;2266828;78;51522;-73
2023/04/14 01:33:39;;;;;;;;;;;;;;;18.26;66.24;100187.10;2244755;78;52452;-74
2023/04/14 01:36:45;;;;;;;;;;;;;;;18.32;66.62;100194.88;2266769;78;50208;-76
2023/04/14 01:39:48;;;;;;;;;;;;;;;18.32;66.52;100198.06;2267046;78;51371;-74
2023/04/14 01:42:53;;;;;;;;;;;;;;;18.31;66.44;100194.53;2266921;78;51393;-74
2023/04/14 01:45:55;;;;;;;;;;;;;;;18.33;66.51;100197.86;2244345;78;51807;-74
2023/04/14 01:48:57;;;;;;;;;;;;;;;18.33;66.50;100200.53;2261741;78;51559;-75
2023/04/14 01:51:59;;;;;;;;;;;;;;;18.30;66.54;100194.23;2251371;78;51543;-75
2023/04/14 01:55:04;;;;;;;;;;;;;;;18.30;66.36;100192.06;2288893;76;50287;-75
2023/04/14 01:58:04;;;;;;;;;;;;;;;18.28;66.38;100191.73;2288941;77;22373;-75
2023/04/14 02:01:06;;;;;;;;;;;;;;;18.30;66.14;100198.77;2260772;78;51447;-75
2023/04/14 02:04:08;;;;;;;;;;;;;;;18.28;66.35;100196.27;2260415;78;50745;-74
2023/04/14 02:07:11;;;;;;;;;;;;;;;18.28;66.40;100196.27;2289154;77;51410;-74
2023/04/14 02:10:13;;;;;;;;;;;;;;;18.27;66.65;100199.98;2229220;79;52432;-74
2023/04/14 02:13:14;;;;;;;;;;;;;;;18.27;66.71;100201.31;2202117;80;51423;-75
2023/04/14 02:16:16;;;;;;;;;;;;;;;18.27;66.65;100198.64;2224029;78;52356;-75
2023/04/14 02:19:21;;;;;;;;;;;;;;;18.26;66.90;100195.63;2240699;78;50647;-76
2023/04/14 02:22:22;;;;;;;;;;;;;;;18.28;66.49;100197.60;2227462;78;50408;-76
2023/04/14 02:25:25;;;;;;;;;;;;;;;18.28;66.71;100201.62;2222083;80;51524;-76
2023/04/14 02:28:28;;;;;;;;;;;;;;;18.26;66.68;100196.96;2246270;79;50677;-74
2023/04/14 02:31:29;;;;;;;;;;;;;;;18.28;66.71;100204.30;2253033;79;51040;-75
2023/04/14 02:34:45;;;;;;;;;;;;;;;18.29;66.87;100219.37;2256345;78;51203;-74
2023/04/14 02:37:50;;;;;;;;;;;;;;;18.29;66.51;100211.33;2252142;78;50649;-74
2023/04/14 02:40:52;;;;;;;;;;;;;;;18.31;66.35;100217.81;2252925;79;50456;-75
2023/04/14 02:43:55;;;;;;;;;;;;;;;18.32;66.59;100214.14;2252664;79;50324;-74
2023/04/14 02:47:02;;;;;;;;;;;;;;;18.30;66.52;100216.99;2256629;78;51800;-74
2023/04/14 02:50:02;;;;;;;;;;;;;;;18.32;66.94;100218.16;2227678;78;22478;-74
2023/04/14 02:53:04;;;;;;;;;;;;;;;18.32;66.97;100219.49;2248940;79;51557;-73
2023/04/14 02:56:05;;;;;;;;;;;;;;;18.32;67.03;100223.52;2288719;77;50369;-74
2023/04/14 02:59:07;;;;;;;;;;;;;;;18.32;66.93;100228.87;2288964;77;50337;-76
2023/04/14 03:02:09;;;;;;;;;;;;;;;18.30;67.11;100226.37;2260653;78;50372;-73
2023/04/14 03:05:11;;;;;;;;;;;;;;;18.30;67.23;100220.19;2288560;77;51632;-73
2023/04/14 03:08:14;;;;;;;;;;;;;;;18.30;67.34;100213.49;2288928;77;50654;-73
2023/04/14 03:11:15;;;;;;;;;;;;;;;18.31;67.13;100215.14;2217585;79;52400;-74
2023/04/14 03:14:17;;;;;;;;;;;;;;;18.28;67.32;100221.70;2238308;78;51167;-74
2023/04/14 03:17:19;;;;;;;;;;;;;;;18.28;67.02;100223.87;2257392;78;51728;-74
2023/04/14 03:20:22;;;;;;;;;;;;;;;18.28;67.12;100219.03;2250574;78;50752;-75
2023/04/14 03:23:24;;;;;;;;;;;;;;;18.28;67.00;100207.80;2281070;77;52459;-74
2023/04/14 03:26:25;;;;;;;;;;;;;;;18.31;67.00;100218.64;2244457;77;50263;-74
2023/04/14 03:29:29;;;;;;;;;;;;;;;18.30;67.08;100215.66;2227320;78;50213;-73
2023/04/14 03:32:33;;;;;;;;;;;;;;;18.29;67.05;100218.03;2252775;79;50534;-74
2023/04/14 03:35:34;;;;;;;;;;;;;;;18.30;66.87;100223.69;2216493;78;51271;-73
2023/04/14 03:38:36;;;;;;;;;;;;;;;18.30;67.30;100218.85;2221977;80;51333;-74
2023/04/14 03:41:38;;;;;;;;;;;;;;;18.27;67.30;100220.06;2222846;78;50402;-73
2023/04/14 03:44:41;;;;;;;;;;;;;;;18.27;67.25;100213.36;2221954;79;50702;-74
2023/04/14 03:47:43;;;;;;;;;;;;;;;18.25;67.15;100217.56;2201586;80;52498;-76
2023/04/14 03:50:46;;;;;;;;;;;;;;;18.26;66.83;100215.22;2222210;80;51548;-75
2023/04/14 03:53:47;;;;;;;;;;;;;;;18.28;67.05;100219.03;2221991;80;50699;-73
2023/04/14 03:56:50;;;;;;;;;;;;;;;18.31;66.97;100218.64;2222038;80;51590;-74
2023/04/14 03:59:52;;;;;;;;;;;;;;;18.30;66.93;100218.33;2202029;80;49670;-74
2023/04/14 04:02:53;;;;;;;;;;;;;;;18.31;66.85;100213.28;2222177;80;50369;-74
2023/04/14 04:05:55;;;;;;;;;;;;;;;18.32;66.83;100214.96;2239144;78;50318;-74
2023/04/14 04:08:56;;;;;;;;;;;;;;;18.33;66.69;100211.25;2252894;79;50322;-75
2023/04/14 04:11:58;;;;;;;;;;;;;;;18.31;66.85;100215.14;2280937;77;51616;-75
2023/04/14 04:15:00;;;;;;;;;;;;;;;18.31;66.81;100211.95;2288673;77;50307;-74
2023/04/14 04:18:02;;;;;;;;;;;;;;;18.30;66.64;100206.80;2260535;78;51498;-74
2023/04/14 04:21:03;;;;;;;;;;;;;;;18.32;66.80;100210.94;2288937;77;50325;-73
2023/04/14 04:24:05;;;;;;;;;;;;;;;18.32;66.79;100209.60;2231740;79;51132;-75
2023/04/14 04:27:07;;;;;;;;;;;;;;;18.31;66.87;100201.23;2288952;77;51558;-74
2023/04/14 04:30:09;;;;;;;;;;;;;;;18.31;67.06;100202.57;2288976;77;50733;-74
2023/04/14 04:33:11;;;;;;;;;;;;;;;18.31;67.09;100201.23;2259034;78;50273;-73
2023/04/14 04:36:12;;;;;;;;;;;;;;;18.31;66.63;100202.57;2221061;78;51179;-74
2023/04/14 04:39:14;;;;;;;;;;;;;;;18.31;66.79;100199.89;2230169;80;51595;-72
2023/04/14 04:42:16;;;;;;;;;;;;;;;18.37;66.96;100196.95;2230321;80;50695;-73
2023/04/14 04:45:22;;;;;;;;;;;;;;;18.35;65.42;100208.39;2209217;80;50006;-75
2023/04/14 04:48:24;;;;;;;;;;;;;;;18.34;65.41;100204.03;2205917;79;52783;-74
2023/04/14 04:51:25;;;;;;;;;;;;;;;18.31;65.95;100207.92;2210259;80;50222;-72
2023/04/14 04:54:27;;;;;;;;;;;;;;;18.29;65.93;100200.62;2225239;79;52404;-72
2023/04/14 04:57:28;;;;;;;;;;;;;;;18.28;65.87;100201.62;2218827;78;50092;-72
2023/04/14 05:00:30;;;;;;;;;;;;;;;18.28;65.32;100198.94;2218275;78;51668;-71
2023/04/14 05:03:32;;;;;;;;;;;;;;;18.27;65.05;100210.17;2253604;78;50148;-72
2023/04/14 05:06:36;;;;;;;;;;;;;;;18.26;65.31;100203.66;2234836;78;50245;-71
2023/04/14 05:09:37;;;;;;;;;;;;;;;18.27;65.35;100210.69;2230708;78;51790;-72
2023/04/14 05:12:39;;;;;;;;;;;;;;;18.27;65.56;100210.17;2231778;78;51511;-73
2023/04/14 05:15:41;;;;;;;;;;;;;;;18.27;65.16;100214.70;2243915;78;51414;-73
2023/04/14 05:18:42;;;;;;;;;;;;;;;18.27;65.16;100209.34;2242933;79;50685;-71
2023/04/14 05:21:44;;;;;;;;;;;;;;;18.27;65.13;100208.02;2266200;78;51429;-75
2023/04/14 05:24:49;;;;;;;;;;;;;;;18.25;65.16;100208.70;2259785;78;51528;-75
2023/04/14 05:27:51;;;;;;;;;;;;;;;18.28;65.98;100219.03;2253729;78;51493;-76
2023/04/14 05:30:52;;;;;;;;;;;;;;;18.27;65.71;100214.19;2266240;78;51435;-74
2023/04/14 05:33:54;;;;;;;;;;;;;;;18.28;66.02;100216.35;2271232;78;51445;-75
2023/04/14 05:36:56;;;;;;;;;;;;;;;18.28;66.10;100215.83;2194444;78;51721;-74
2023/04/14 05:39:57;;;;;;;;;;;;;;;18.26;65.73;100215.22;2202778;80;51509;-75
2023/04/14 05:42:59;;;;;;;;;;;;;;;18.27;65.89;100212.84;2186497;80;51441;-75
2023/04/14 05:46:01;;;;;;;;;;;;;;;18.28;65.58;100212.33;2222752;80;50642;-74
2023/04/14 05:49:03;;;;;;;;;;;;;;;18.27;65.21;100220.06;2224364;78;51226;-74
2023/04/14 05:52:05;;;;;;;;;;;;;;;18.26;65.58;100213.03;2257534;77;52614;-75
2023/04/14 05:55:07;;;;;;;;;;;;;;;18.25;65.68;100220.75;2246237;78;51440;-76
2023/04/14 05:58:08;;;;;;;;;;;;;;;18.25;65.93;100214.06;2243652;78;50385;-74
2023/04/14 06:01:10;;;;;;;;;;;;;;;18.26;66.21;100219.23;2186109;80;51036;-73
2023/04/14 06:04:12;;;;;;;;;;;;;;;18.29;66.42;100218.03;2213229;78;51555;-74
2023/04/14 06:07:14;;;;;;;;;;;;;;;18.28;66.19;100215.02;2221527;79;49594;-74
2023/04/14 06:10:15;;;;;;;;;;;;;;;18.30;66.22;100216.17;2230779;78;51562;-73
2023/04/14 06:13:21;;;;;;;;;;;;;;;18.30;66.29;100222.35;2209787;80;52359;-72
2023/04/14 06:16:20;;;;;;;;;;;;;;;18.26;66.27;100217.90;2255822;78;21977;-73
2023/04/14 06:19:22;;;;;;;;;;;;;;;18.24;66.22;100224.47;2255744;78;50298;-73
2023/04/14 06:22:27;;;;;;;;;;;;;;;18.24;66.24;100226.63;2245511;78;50383;-72
2023/04/14 06:25:27;;;;;;;;;;;;;;;18.26;66.30;100229.09;2245053;78;22310;-74
2023/04/14 06:28:28;;;;;;;;;;;;;;;18.25;66.46;100231.47;2210388;78;50527;-75
2023/04/14 06:31:30;;;;;;;;;;;;;;;18.24;66.27;100225.80;2240935;78;50728;-73
2023/04/14 06:34:31;;;;;;;;;;;;;;;18.25;66.21;100228.27;2220551;78;50318;-74
2023/04/14 06:37:33;;;;;;;;;;;;;;;18.27;66.16;100234.80;2233002;78;51201;-73
2023/04/14 06:40:35;;;;;;;;;;;;;;;18.25;66.09;100235.48;2243662;78;50365;-74
2023/04/14 06:43:36;;;;;;;;;;;;;;;18.25;66.26;100228.27;2214547;78;50123;-73
2023/04/14 06:46:38;;;;;;;;;;;;;;;18.25;66.30;100233.63;2233714;78;50493;-72
2023/04/14 06:49:40;;;;;;;;;;;;;;;18.26;66.60;100227.27;2234770;78;51097;-72
2023/04/14 06:52:41;;;;;;;;;;;;;;;18.28;66.72;100233.24;2233089;79;50807;-71
2023/04/14 06:55:43;;;;;;;;;;;;;;;18.31;66.76;100229.88;2250272;78;50713;-72
2023/04/14 06:58:44;;;;;;;;;;;;;;;18.30;66.58;100227.70;2245130;78;51623;-73
2023/04/14 07:01:46;;;;;;;;;;;;;;;18.30;66.66;100229.05;2198804;80;50232;-72
2023/04/14 07:04:47;;;;;;;;;;;;;;;18.30;66.57;100237.59;2241088;78;50664;-73
2023/04/14 07:07:49;;;;;;;;;;;;;;;18.30;66.54;100241.61;2233978;78;51496;-72
2023/04/14 07:10:51;;;;;;;;;;;;;;;18.27;66.48;100224.91;2225592;78;50664;-73
2023/04/14 07:13:53;;;;;;;;;;;;;;;18.28;66.51;100223.05;2219438;79;52384;-73
2023/04/14 07:16:54;;;;;;;;;;;;;;;18.27;66.35;100228.09;2278006;77;51549;-74
2023/04/14 07:19:57;;;;;;;;;;;;;;;18.26;66.36;100219.72;2232549;78;50641;-73
2023/04/14 07:22:58;;;;;;;;;;;;;;;18.25;66.40;100224.26;2250411;78;50407;-73
2023/04/14 07:26:00;;;;;;;;;;;;;;;18.27;66.36;100230.77;2206808;80;52553;-72
2023/04/14 07:29:01;;;;;;;;;;;;;;;18.25;66.18;100226.94;2209240;79;50509;-73
2023/04/14 07:32:03;;;;;;;;;;;;;;;18.26;66.26;100231.78;2247077;78;51614;-73
2023/04/14 07:35:07;;;;;;;;;;;;;;;18.31;66.32;100237.91;2230085;78;50320;-72
2023/04/14 07:38:09;;;;;;;;;;;;;;;18.27;65.89;100238.30;2241887;78;51719;-75
2023/04/14 07:41:10;;;;;;;;;;;;;;;18.26;65.96;100238.47;2225540;79;51497;-74
2023/04/14 07:44:12;;;;;;;;;;;;;;;18.28;65.88;100240.45;2239846;78;51436;-75
2023/04/14 07:47:14;;;;;;;;;;;;;;;18.27;65.69;100246.84;2229775;79;50709;-73
2023/04/14 07:50:15;;;;;;;;;;;;;;;18.27;65.54;100251.69;2201842;80;52432;-74
2023/04/14 07:53:17;;;;;;;;;;;;;;;18.25;65.67;100250.22;2224785;79;51500;-74
2023/04/14 07:56:19;;;;;;;;;;;;;;;18.25;65.58;100256.91;2221960;79;51426;-75
2023/04/14 07:59:21;;;;;;;;;;;;;;;18.25;65.51;100260.41;2224464;79;51603;-73
2023/04/14 08:02:22;;;;;;;;;;;;;;;18.27;65.47;100264.25;2222199;79;50916;-74
2023/04/14 08:05:24;;;;;;;;;;;;;;;18.27;65.45;100257.04;2232017;79;51442;-75
2023/04/14 08:08:25;;;;;;;;;;;;;;;18.28;65.38;100261.36;2252653;79;51509;-72
2023/04/14 08:11:27;;;;;;;;;;;;;;;18.27;65.29;100253.54;2231966;79;49645;-72
2023/04/14 08:14:29;;;;;;;;;;;;;;;18.26;65.31;100249.19;2231857;79;51061;-73
2023/04/14 08:17:31;;;;;;;;;;;;;;;18.25;65.31;100251.55;2232019;79;51294;-73
2023/04/14 08:20:32;;;;;;;;;;;;;;;18.26;65.32;100250.52;2256490;78;52967;-72
2023/04/14 08:23:34;;;;;;;;;;;;;;;18.24;65.18;100241.88;2288780;77;51537;-75
2023/04/14 08:26:35;;;;;;;;;;;;;;;18.25;65.12;100242.19;2260005;78;51503;-74
2023/04/14 08:29:37;;;;;;;;;;;;;;;18.25;65.09;100250.22;2288768;77;50242;-73
2023/04/14 08:32:38;;;;;;;;;;;;;;;18.26;65.09;100241.15;2288486;77;50332;-72
2023/04/14 08:35:40;;;;;;;;;;;;;;;18.24;65.03;100241.36;2245511;78;50637;-73
2023/04/14 08:38:42;;;;;;;;;;;;;;;18.24;64.96;100238.68;2239650;78;52500;-72
2023/04/14 08:41:43;;;;;;;;;;;;;;;18.25;64.97;100236.83;2264444;78;51413;-73
2023/04/14 08:44:46;;;;;;;;;;;;;;;18.24;64.85;100229.82;2288615;77;50362;-74
2023/04/14 08:47:48;;;;;;;;;;;;;;;18.24;64.87;100229.30;2288404;76;50374;-72
2023/04/14 08:51:04;;;;;;;;;;;;;;;18.21;64.89;100217.64;2239744;78;52661;-73
2023/04/14 08:54:07;;;;;;;;;;;;;;;18.22;64.93;100221.14;2226000;78;51757;-73
2023/04/14 08:57:09;;;;;;;;;;;;;;;18.23;64.86;100220.11;2229444;79;50309;-71
2023/04/14 09:00:11;;;;;;;;;;;;;;;18.24;64.80;100213.76;2229859;80;51504;-72
2023/04/14 09:03:12;;;;;;;;;;;;;;;18.26;64.64;100213.03;2229717;78;51406;-73
2023/04/14 09:06:14;;;;;;;;;;;;;;;18.21;64.58;100208.27;2214302;78;52469;-73
2023/04/14 09:09:16;;;;;;;;;;;;;;;18.22;64.61;100206.41;2229775;80;50325;-72
2023/04/14 09:12:17;;;;;;;;;;;;;;;18.22;64.76;100210.44;2209301;80;50449;-72
2023/04/14 09:15:20;;;;;;;;;;;;;;;18.21;64.66;100210.09;2229929;80;50266;-72
2023/04/14 09:18:21;;;;;;;;;;;;;;;18.22;64.69;100213.11;2186143;80;51162;-72
2023/04/14 09:21:23;;;;;;;;;;;;;;;18.24;64.54;100204.38;2230101;80;51452;-74
2023/04/14 09:24:28;;;;;;;;;;;;;;;18.23;64.66;100212.08;2229981;80;50403;-72
2023/04/14 09:27:29;;;;;;;;;;;;;;;18.22;64.44;100210.44;2230531;80;22353;-73
2023/04/14 09:30:31;;;;;;;;;;;;;;;18.21;64.47;100212.29;2209383;80;51029;-73
2023/04/14 09:33:33;;;;;;;;;;;;;;;18.21;64.43;100208.76;2236356;78;50473;-73
2023/04/14 09:36:34;;;;;;;;;;;;;;;18.22;64.40;100213.11;2238649;78;50670;-71
2023/04/14 09:39:37;;;;;;;;;;;;;;;18.22;64.37;100213.94;2230094;80;50420;-74
2023/04/14 09:42:39;;;;;;;;;;;;;;;18.19;64.30;100213.50;2230061;80;51453;-73
2023/04/14 09:45:41;;;;;;;;;;;;;;;18.19;64.16;100214.32;2209190;80;51520;-73
2023/04/14 09:48:51;;;;;;;;;;;;;;;18.19;64.30;100206.80;2230208;80;51503;-73
2023/04/14 09:51:56;;;;;;;;;;;;;;;18.19;64.20;100202.78;2230265;80;50484;-73
2023/04/14 09:54:58;;;;;;;;;;;;;;;18.18;64.25;100211.82;2209835;80;52533;-72
2023/04/14 09:58:00;;;;;;;;;;;;;;;18.19;64.29;100197.44;2209735;80;50679;-73
2023/04/14 10:01:05;;;;;;;;;;;;;;;18.16;64.21;100191.95;2230346;80;50070;-73
2023/04/14 10:04:08;;;;;;;;;;;;;;;18.18;64.13;100196.58;2242009;78;51473;-74
2023/04/14 10:07:11;;;;;;;;;;;;;;;18.18;64.19;100203.79;2223144;79;52375;-73
2023/04/14 10:10:12;;;;;;;;;;;;;;;18.17;64.14;100202.97;2231071;79;50756;-74
2023/04/14 10:13:14;;;;;;;;;;;;;;;18.17;64.09;100198.95;2275478;77;51436;-73
2023/04/14 10:16:16;;;;;;;;;;;;;;;18.16;64.05;100206.67;2254010;78;51536;-73
2023/04/14 10:19:20;;;;;;;;;;;;;;;18.17;63.99;100198.12;2232724;78;51140;-73
2023/04/14 10:22:22;;;;;;;;;;;;;;;18.16;64.02;100197.79;2269733;78;22358;-73
2023/04/14 10:25:23;;;;;;;;;;;;;;;18.16;64.12;100195.11;2277851;78;51455;-72
2023/04/14 10:28:25;;;;;;;;;;;;;;;18.17;63.90;100188.76;2225818;78;51536;-72
2023/04/14 10:31:35;;;;;;;;;;;;;;;18.17;64.24;100184.22;2213729;79;53202;-72
2023/04/14 10:34:36;;;;;;;;;;;;;;;18.15;64.13;100179.56;2232600;79;51565;-72
2023/04/14 10:37:38;;;;;;;;;;;;;;;18.14;63.97;100179.77;2233805;78;50690;-72
2023/04/14 10:40:51;;;;;;;;;;;;;;;18.17;64.49;100182.06;2249918;78;50389;-72
2023/04/14 10:43:52;;;;;;;;;;;;;;;18.21;64.40;100184.66;2229716;79;52585;-72
2023/04/14 10:46:55;;;;;;;;;;;;;;;18.22;64.47;100191.17;2252996;78;51440;-73
2023/04/14 10:50:03;;;;;;;;;;;;;;;18.23;64.46;100172.73;2278490;78;50321;-72
2023/04/14 10:53:03;;;;;;;;;;;;;;;18.26;64.51;100176.88;2258173;78;22406;-73
2023/04/14 10:56:05;;;;;;;;;;;;;;;18.26;64.45;100180.89;2199926;80;52635;-72
2023/04/14 10:59:07;;;;;;;;;;;;;;;18.27;64.08;100177.21;2202068;80;51571;-73
2023/04/14 11:02:24;;;;;;;;;;;;;;;18.22;64.09;100166.25;2234785;78;51597;-72
2023/04/14 11:05:26;;;;;;;;;;;;;;;18.21;64.26;100165.91;2249035;78;51545;-72
2023/04/14 11:08:29;;;;;;;;;;;;;;;18.19;64.50;100166.64;2178595;80;50969;-72
2023/04/14 11:11:31;;;;;;;;;;;;;;;18.21;64.43;100163.23;2221770;78;51500;-73
2023/04/14 11:14:33;;;;;;;;;;;;;;;18.19;64.50;100170.66;2201845;80;51481;-74
2023/04/14 11:17:38;;;;;;;;;;;;;;;18.19;64.25;100164.78;2201861;80;50839;-73
2023/04/14 11:20:41;;;;;;;;;;;;;;;18.16;64.10;100169.67;2178543;80;51787;-72
2023/04/14 11:23:43;;;;;;;;;;;;;;;18.17;63.95;100165.48;2202277;80;51583;-72
2023/04/14 11:26:44;;;;;;;;;;;;;;;18.18;63.81;100162.28;2229511;79;50563;-74
2023/04/14 11:29:47;;;;;;;;;;;;;;;18.18;63.74;100164.96;2231547;78;50355;-72
2023/04/14 11:32:50;;;;;;;;;;;;;;;18.14;63.67;100161.03;2231834;78;50730;-72
2023/04/14 11:35:52;;;;;;;;;;;;;;;18.14;63.87;100161.85;2246453;78;51512;-73
2023/04/14 11:38:54;;;;;;;;;;;;;;;18.12;63.89;100159.88;2238608;79;50321;-72
2023/04/14 11:41:58;;;;;;;;;;;;;;;18.11;63.77;100169.42;2276369;78;50316;-72
2023/04/14 11:44:59;;;;;;;;;;;;;;;18.11;63.78;100166.74;2275525;78;22622;-73
2023/04/14 11:48:02;;;;;;;;;;;;;;;18.10;63.87;100167.78;2275788;78;50264;-72
2023/04/14 11:51:04;;;;;;;;;;;;;;;18.11;63.76;100162.73;2269762;78;51550;-74
2023/04/14 11:54:05;;;;;;;;;;;;;;;18.13;63.84;100160.17;2258193;78;50526;-72
2023/04/14 11:57:10;;;;;;;;;;;;;;;18.14;63.94;100153.00;2227742;78;51254;-72
2023/04/14 12:00:15;;;;;;;;;;;;;;;18.15;64.16;100160.81;2247034;78;51502;-72
2023/04/14 12:03:16;;;;;;;;;;;;;;;18.15;63.78;100154.12;2206694;79;50329;-71
2023/04/14 12:06:18;;;;;;;;;;;;;;;18.14;63.81;100156.50;2248987;78;50611;-72
2023/04/14 12:09:20;;;;;;;;;;;;;;;18.13;63.76;100146.79;2227867;78;51052;-72
2023/04/14 12:12:21;;;;;;;;;;;;;;;18.14;63.93;100147.64;2229869;78;50675;-73
2023/04/14 12:15:23;;;;;;;;;;;;;;;18.13;63.75;100144.63;2230541;79;51468;-72
2023/04/14 12:18:25;;;;;;;;;;;;;;;18.14;63.83;100144.97;2238560;78;50318;-73
2023/04/14 12:21:27;;;;;;;;;;;;;;;18.12;63.62;100142.98;2237363;78;51242;-72
2023/04/14 12:24:39;;;;;;;;;;;;;;;18.11;63.75;100146.17;2220457;80;51548;-73
2023/04/14 12:27:41;;;;;;;;;;;;;;;18.11;63.65;100139.97;2230832;78;50737;-73
2023/04/14 12:30:44;;;;;;;;;;;;;;;18.13;63.85;100149.98;2241528;78;51453;-74
2023/04/14 12:33:46;;;;;;;;;;;;;;;18.15;63.74;100132.70;2203977;79;52653;-74
2023/04/14 12:36:55;;;;;;;;;;;;;;;18.22;63.66;100142.97;2239122;78;51570;-75
2023/04/14 12:39:58;;;;;;;;;;;;;;;18.18;63.97;100130.15;2243195;79;22283;-74
2023/04/14 12:43:00;;;;;;;;;;;;;;;18.19;63.92;100123.28;2224014;79;51390;-73
2023/04/14 12:46:04;;;;;;;;;;;;;;;18.19;63.86;100124.61;2210585;78;51655;-73
2023/04/14 12:49:06;;;;;;;;;;;;;;;18.16;63.89;100122.81;2256532;78;52409;-75
2023/04/14 12:52:08;;;;;;;;;;;;;;;18.16;63.84;100122.81;2238433;78;51462;-73
2023/04/14 12:55:11;;;;;;;;;;;;;;;18.14;63.88;100115.00;2243497;78;51307;-74
2023/04/14 12:58:12;;;;;;;;;;;;;;;18.14;64.04;100114.17;2231089;79;52374;-73
2023/04/14 13:01:16;;;;;;;;;;;;;;;18.14;63.96;100116.84;2218736;79;51446;-74
2023/04/14 13:04:17;;;;;;;;;;;;;;;18.14;64.03;100108.82;2217826;78;50214;-73
2023/04/14 13:07:19;;;;;;;;;;;;;;;18.14;63.49;100114.17;2242337;78;51508;-74
2023/04/14 13:10:20;;;;;;;;;;;;;;;18.15;63.61;100110.46;2232402;78;51503;-73
2023/04/14 13:13:22;;;;;;;;;;;;;;;18.15;63.55;100110.46;2242511;78;51630;-72
2023/04/14 13:16:24;;;;;;;;;;;;;;;18.18;63.48;100104.72;2264314;78;52422;-72
2023/04/14 13:19:26;;;;;;;;;;;;;;;18.18;63.70;100106.05;2260075;78;50369;-73
2023/04/14 13:22:27;;;;;;;;;;;;;;;18.17;63.92;100105.75;2221344;79;51662;-72
2023/04/14 13:25:29;;;;;;;;;;;;;;;18.17;63.95;100100.39;2233203;78;50392;-72
2023/04/14 13:28:31;;;;;;;;;;;;;;;18.17;63.74;100091.02;2229843;80;50413;-72
2023/04/14 13:31:32;;;;;;;;;;;;;;;18.27;63.84;100092.85;2229931;79;50311;-72
2023/04/14 13:34:34;;;;;;;;;;;;;;;18.30;63.83;100086.28;2214014;78;52518;-70
2023/04/14 13:37:36;;;;;;;;;;;;;;;18.33;63.71;100082.69;2227644;79;51671;-74
2023/04/14 13:40:37;;;;;;;;;;;;;;;18.33;63.67;100085.37;2217883;79;51432;-70
2023/04/14 13:43:39;;;;;;;;;;;;;;;18.32;63.80;100083.72;2239974;78;50676;-71
2023/04/14 13:46:40;;;;;;;;;;;;;;;18.33;63.82;100071.97;2209177;78;49474;-73
2023/04/14 13:49:42;;;;;;;;;;;;;;;18.31;63.92;100079.89;2236768;78;50419;-71
2023/04/14 13:52:44;;;;;;;;;;;;;;;18.31;63.89;100072.67;2230000;80;50623;-72
2023/04/14 13:55:46;;;;;;;;;;;;;;;18.30;64.10;100076.39;2235052;78;50256;-73
2023/04/14 13:58:47;;;;;;;;;;;;;;;18.28;64.32;100073.89;2210213;78;52000;-74
2023/04/14 14:01:49;;;;;;;;;;;;;;;18.28;64.51;100073.07;2233615;79;51357;-72
2023/04/14 14:04:50;;;;;;;;;;;;;;;18.35;64.51;100067.26;2249092;78;51481;-72
2023/04/14 14:07:52;;;;;;;;;;;;;;;18.32;64.46;100068.17;2239178;78;51498;-73
2023/04/14 14:10:54;;;;;;;;;;;;;;;18.33;64.45;100066.62;2225830;78;52283;-71
2023/04/14 14:13:55;;;;;;;;;;;;;;;18.40;64.23;100058.13;2211794;78;50513;-71
2023/04/14 14:16:57;;;;;;;;;;;;;;;18.43;64.07;100067.62;2248054;78;50649;-72
2023/04/14 14:19:59;;;;;;;;;;;;;;;18.43;63.97;100061.74;2255962;78;51416;-73
2023/04/14 14:23:00;;;;;;;;;;;;;;;18.37;64.29;100062.53;2210570;78;51077;-75
2023/04/14 14:26:02;;;;;;;;;;;;;;;18.37;64.25;100066.55;2234885;78;50131;-72
2023/04/14 14:29:03;;;;;;;;;;;;;;;18.35;64.40;100061.90;2245703;78;50124;-73
2023/04/14 14:32:07;;;;;;;;;;;;;;;18.35;64.33;100054.37;2217237;79;50633;-72
2023/04/14 14:35:09;;;;;;;;;;;;;;;18.29;63.26;100050.64;2224379;78;51558;-72
2023/04/14 14:38:10;;;;;;;;;;;;;;;18.28;63.67;100047.63;2243847;78;50356;-73
2023/04/14 14:41:12;;;;;;;;;;;;;;;18.27;63.75;100047.33;2246741;78;52091;-72
2023/04/14 14:44:13;;;;;;;;;;;;;;;18.26;63.64;100042.97;2236394;78;50274;-72
2023/04/14 14:47:16;;;;;;;;;;;;;;;18.21;63.11;100040.91;2237955;78;51587;-72
2023/04/14 14:50:17;;;;;;;;;;;;;;;18.23;63.65;100036.67;2259606;78;50364;-73
2023/04/14 14:53:19;;;;;;;;;;;;;;;18.18;63.08;100034.58;2260470;78;50755;-73
2023/04/14 14:56:20;;;;;;;;;;;;;;;18.18;63.40;100040.45;2253096;78;50671;-74
2023/04/14 14:59:22;;;;;;;;;;;;;;;18.20;63.96;100033.05;2206798;78;51368;-74
2023/04/14 15:02:24;;;;;;;;;;;;;;;18.21;63.88;100038.23;2248325;78;51531;-76
2023/04/14 15:05:26;;;;;;;;;;;;;;;18.26;63.43;100033.59;2247669;78;51531;-76
2023/04/14 15:08:28;;;;;;;;;;;;;;;18.24;63.63;100034.33;2240862;78;50766;-75
2023/04/14 15:11:29;;;;;;;;;;;;;;;18.25;63.77;100030.62;2205701;80;51130;-74
2023/04/14 15:14:31;;;;;;;;;;;;;;;18.29;63.72;100037.25;2208000;80;50208;-74
2023/04/14 15:17:33;;;;;;;;;;;;;;;18.32;63.78;100038.71;2208015;80;50180;-77
2023/04/14 15:20:36;;;;;;;;;;;;;;;18.29;63.87;100045.28;2258739;78;51524;-74
2023/04/14 15:23:40;;;;;;;;;;;;;;;18.28;63.94;100039.59;2219743;78;51362;-73
2023/04/14 15:26:40;;;;;;;;;;;;;;;18.26;64.00;100047.84;2230034;79;22417;-74
2023/04/14 15:29:42;;;;;;;;;;;;;;;18.28;64.00;100052.47;2247280;78;51485;-72
2023/04/14 15:32:44;;;;;;;;;;;;;;;18.31;64.00;100051.25;2204516;79;51502;-73
2023/04/14 15:35:45;;;;;;;;;;;;;;;18.30;63.96;100047.45;2247926;78;52719;-72